Time;durP1;ratioP1;P1;durP2;ratioP2;P2;SDS_P1;SDS_P2;PMS_P1;PMS_P2;Temp;Humidity;BMP_temperature;BMP_pressure;BME280_temperature;BME280_humidity;BME280_pressure;Samples;Min_cycle;Max_cycle;Signal;HPM_P1;HPM_P2
2021/07/10 00:02:48;;;;;;;15.28;8.45;;;;;;;21.25;72.78;100318.56;1771138;81;21289;-78
2021/07/10 00:05:54;;;;;;;22.10;7.95;;;;;;;21.26;72.71;100321.64;1776937;80;21336;-78
2021/07/10 00:09:01;;;;;;;12.50;7.60;;;;;;;21.26;72.65;100323.03;1783380;80;21204;-79
2021/07/10 00:12:05;;;;;;;16.60;8.43;;;;;;;21.25;72.39;100320.80;1784075;80;21288;-78
2021/07/10 00:15:17;;;;;;;22.27;8.05;;;;;;;21.27;72.35;100320.58;1783500;80;21197;-79
2021/07/10 00:18:24;;;;;;;12.80;7.95;;;;;;;21.26;72.32;100310.52;1785899;80;21154;-78
2021/07/10 00:21:31;;;;;;;11.25;8.18;;;;;;;21.24;72.33;100314.10;1785940;80;21161;-78
2021/07/10 00:24:37;;;;;;;20.45;8.18;;;;;;;21.19;72.36;100305.95;1783976;80;21188;-79
2021/07/10 00:27:43;;;;;;;14.63;8.35;;;;;;;21.18;72.33;100312.61;1784894;80;21352;-78
2021/07/10 00:30:48;;;;;;;16.20;7.92;;;;;;;21.18;72.29;100312.61;1784069;80;21970;-78
2021/07/10 00:33:54;;;;;;;15.20;8.53;;;;;;;21.19;72.21;100314.29;1783406;80;21224;-78
2021/07/10 00:36:59;;;;;;;15.80;8.53;;;;;;;21.18;72.03;100320.95;1783391;80;21807;-78
2021/07/10 00:40:06;;;;;;;13.62;7.83;;;;;;;21.17;71.99;100319.27;1784805;80;21296;-78
2021/07/10 00:43:12;;;;;;;13.80;8.50;;;;;;;21.15;71.89;100320.04;1784770;80;21181;-79
2021/07/10 00:46:18;;;;;;;14.20;8.10;;;;;;;21.14;71.90;100311.41;1783863;80;21213;-79
2021/07/10 00:49:23;;;;;;;13.93;7.97;;;;;;;21.13;71.95;100312.50;1744541;80;21209;-78
2021/07/10 00:52:29;;;;;;;19.70;8.45;;;;;;;21.12;71.95;100308.00;1784867;80;21352;-78
2021/07/10 00:55:34;;;;;;;15.65;8.90;;;;;;;21.12;71.96;100312.73;1783760;80;21320;-78
2021/07/10 00:58:39;;;;;;;14.45;8.73;;;;;;;21.12;71.90;100308.00;1784712;80;21197;-79
2021/07/10 01:01:44;;;;;;;12.98;7.67;;;;;;;21.11;71.86;100313.27;1783702;80;21914;-78
2021/07/10 01:04:50;;;;;;;14.50;8.63;;;;;;;21.09;71.99;100312.69;1783353;80;21735;-78
2021/07/10 01:07:57;;;;;;;17.98;8.65;;;;;;;21.05;72.07;100310.64;1749598;81;21211;-78
2021/07/10 01:11:03;;;;;;;14.23;8.08;;;;;;;21.01;72.21;100306.11;1749013;82;21195;-78
2021/07/10 01:14:10;;;;;;;13.48;7.92;;;;;;;20.96;72.47;100308.78;1749107;82;21192;-78
2021/07/10 01:17:16;;;;;;;14.40;8.65;;;;;;;20.90;72.66;100305.05;1749396;82;21890;-78
2021/07/10 01:20:27;;;;;;;19.57;8.73;;;;;;;20.87;72.80;100303.30;1749199;82;21291;-78
2021/07/10 01:23:31;;;;;;;14.50;8.68;;;;;;;20.85;72.88;100299.93;1751876;82;21259;-78
2021/07/10 01:26:37;;;;;;;14.30;8.40;;;;;;;20.81;73.04;100306.52;1750620;82;21290;-78
2021/07/10 01:29:43;;;;;;;15.25;8.40;;;;;;;20.79;73.23;100306.44;1750636;82;21730;-78
2021/07/10 01:32:49;;;;;;;17.85;8.93;;;;;;;20.76;73.45;100304.17;1751399;82;21303;-78
2021/07/10 01:35:55;;;;;;;13.48;8.10;;;;;;;20.73;73.62;100302.70;1749693;82;21208;-78
2021/07/10 01:39:01;;;;;;;13.95;8.33;;;;;;;20.73;73.78;100303.26;1749149;82;21728;-78
2021/07/10 01:42:07;;;;;;;15.63;8.80;;;;;;;20.67;73.92;100300.37;1750629;82;21307;-78
2021/07/10 01:45:12;;;;;;;13.60;9.30;;;;;;;20.62;74.08;100296.62;1749175;82;21168;-78
2021/07/10 01:48:20;;;;;;;19.32;10.60;;;;;;;20.54;74.22;100307.55;1749234;82;21235;-78
2021/07/10 01:51:25;;;;;;;22.73;9.58;;;;;;;20.48;74.42;100306.30;1749238;82;21188;-78
2021/07/10 01:54:32;;;;;;;14.75;10.32;;;;;;;20.40;74.62;100309.69;1749097;82;21200;-78
2021/07/10 01:57:38;;;;;;;12.88;9.00;;;;;;;20.34;74.90;100313.98;1750533;82;21176;-78
2021/07/10 02:00:48;;;;;;;20.25;9.90;;;;;;;20.28;75.13;100309.38;1749204;82;21299;-78
2021/07/10 02:03:53;;;;;;;19.98;9.70;;;;;;;20.26;75.29;100310.17;1750687;82;21910;-78
2021/07/10 02:07:00;;;;;;;17.95;9.85;;;;;;;20.24;75.42;100318.75;1751571;80;21342;-78
2021/07/10 02:10:05;;;;;;;19.40;10.28;;;;;;;20.29;75.39;100319.42;1753277;82;21469;-78
2021/07/10 02:13:17;;;;;;;20.00;11.10;;;;;;;20.41;75.15;100317.48;1751890;81;21195;-78
2021/07/10 02:16:23;;;;;;;16.55;9.38;;;;;;;20.59;74.64;100315.16;1751795;81;21766;-78
2021/07/10 02:19:30;;;;;;;14.60;9.45;;;;;;;20.75;74.00;100317.74;1751779;81;21180;-78
2021/07/10 02:22:35;;;;;;;21.65;9.80;;;;;;;20.92;73.31;100308.97;1753409;82;21818;-78
2021/07/10 02:25:40;;;;;;;13.83;9.00;;;;;;;21.11;72.50;100306.33;1753016;82;21817;-78
2021/07/10 02:28:46;;;;;;;21.55;10.63;;;;;;;21.31;71.76;100300.91;1753251;82;21188;-79
2021/07/10 02:31:51;;;;;;;12.18;9.45;;;;;;;21.56;70.96;100304.77;1753292;82;21239;-79
2021/07/10 02:34:57;;;;;;;16.93;9.63;;;;;;;21.86;70.00;100300.30;1753877;82;21843;-78
2021/07/10 02:38:01;;;;;;;18.50;9.45;;;;;;;22.12;68.79;100298.30;1753448;82;21310;-78
2021/07/10 02:41:06;;;;;;;16.90;9.18;;;;;;;22.38;67.83;100298.16;1753322;82;21823;-78
2021/07/10 02:44:12;;;;;;;14.33;9.35;;;;;;;22.64;66.77;100302.20;1751883;82;21287;-79
2021/07/10 02:47:18;;;;;;;15.00;9.05;;;;;;;22.92;65.81;100297.61;1753219;82;21369;-79
2021/07/10 02:50:27;;;;;;;10.35;8.08;;;;;;;23.20;64.87;100293.23;1752848;81;21151;-79
2021/07/10 02:53:33;;;;;;;14.15;8.30;;;;;;;23.45;63.87;100300.21;1751964;81;21235;-79
2021/07/10 02:56:39;;;;;;;10.00;8.43;;;;;;;23.63;63.23;100299.02;1752724;82;21318;-79
2021/07/10 02:59:44;;;;;;;13.20;8.38;;;;;;;23.89;62.55;100305.17;1751826;82;21203;-79
2021/07/10 03:02:50;;;;;;;12.68;9.33;;;;;;;24.15;61.88;100301.23;1751764;81;21240;-78
2021/07/10 03:05:50;;;;;;;13.05;9.05;;;;;;;24.44;60.97;100298.98;1753252;82;21362;-79
2021/07/10 03:08:43;;;;;;;12.37;8.18;;;;;;;24.71;59.97;100299.73;1754754;80;21200;-78
2021/07/10 03:11:49;;;;;;;16.12;9.15;;;;;;;24.89;59.43;100297.05;1753101;82;21877;-79
2021/07/10 03:14:54;;;;;;;13.08;8.78;;;;;;;25.01;59.07;100301.56;1753360;82;21302;-79
2021/07/10 03:17:59;;;;;;;15.48;9.30;;;;;;;25.13;58.55;100298.03;1752023;82;21254;-78
2021/07/10 03:21:06;;;;;;;11.40;8.25;;;;;;;25.20;58.41;100301.41;1752261;81;21736;-79
2021/07/10 03:24:11;;;;;;;12.55;8.78;;;;;;;25.24;58.24;100303.38;1753268;82;21882;-78
2021/07/10 03:27:17;;;;;;;11.40;7.35;;;;;;;25.16;58.25;100308.66;1752544;82;21302;-79
2021/07/10 03:30:26;;;;;;;17.20;9.58;;;;;;;25.08;58.53;100301.65;1753308;82;21767;-78
2021/07/10 03:33:34;;;;;;;19.20;9.23;;;;;;;24.99;58.94;100308.84;1752987;82;21263;-78
2021/07/10 03:36:39;;;;;;;16.50;9.98;;;;;;;25.01;58.83;100306.59;1753114;82;21326;-78
2021/07/10 03:39:44;;;;;;;12.90;8.63;;;;;;;25.04;59.03;100316.42;1753355;82;21846;-79
2021/07/10 03:42:50;;;;;;;13.15;8.18;;;;;;;25.12;58.81;100308.92;1753267;82;21299;-78
2021/07/10 03:45:55;;;;;;;16.50;8.80;;;;;;;25.16;58.65;100306.70;1751873;82;21358;-79
2021/07/10 03:48:54;;;;;;;14.40;9.45;;;;;;;25.25;58.44;100312.62;1752904;82;21263;-78
2021/07/10 03:52:00;;;;;;;16.12;8.88;;;;;;;25.32;58.78;100308.19;1751806;81;21195;-78
2021/07/10 03:55:06;;;;;;;15.83;8.75;;;;;;;25.43;58.45;100312.13;1753359;82;21184;-79
2021/07/10 03:58:11;;;;;;;19.07;10.48;;;;;;;25.45;58.15;100312.72;1752694;82;21334;-78
2021/07/10 04:01:17;;;;;;;15.58;9.98;;;;;;;25.48;58.22;100312.71;1753207;82;21231;-78
2021/07/10 04:04:24;;;;;;;17.23;8.58;;;;;;;25.45;58.43;100305.72;1752363;82;21918;-78
2021/07/10 04:07:32;;;;;;;25.70;10.00;;;;;;;25.39;58.48;100307.36;1752795;82;21775;-78
2021/07/10 04:10:37;;;;;;;19.90;9.88;;;;;;;25.37;58.82;100310.44;1753575;80;21266;-78
2021/07/10 04:13:43;;;;;;;16.87;10.35;;;;;;;25.40;59.05;100304.83;1753298;82;21845;-78
2021/07/10 04:16:49;;;;;;;14.53;10.03;;;;;;;25.43;59.09;100311.30;1751709;82;21820;-79
2021/07/10 04:19:55;;;;;;;16.05;9.18;;;;;;;25.44;59.46;100311.57;1752629;82;21833;-78
2021/07/10 04:23:02;;;;;;;19.92;8.70;;;;;;;25.45;59.02;100309.05;1753291;82;21200;-79
2021/07/10 04:26:07;;;;;;;14.98;9.13;;;;;;;25.42;59.04;100316.05;1753337;82;21338;-79
2021/07/10 04:29:13;;;;;;;17.23;8.75;;;;;;;25.39;58.83;100309.59;1752062;82;21196;-78
2021/07/10 04:32:19;;;;;;;10.38;7.17;;;;;;;25.43;58.56;100315.50;1753248;82;21755;-78
2021/07/10 04:35:25;;;;;;;14.55;7.62;;;;;;;25.48;58.64;100314.11;1754215;82;21299;-78
2021/07/10 04:38:30;;;;;;;10.23;7.83;;;;;;;25.51;57.37;100319.17;1754298;82;21719;-78
2021/07/10 04:41:36;;;;;;;11.10;7.67;;;;;;;25.55;57.68;100317.51;1753264;82;21358;-78
2021/07/10 04:44:42;;;;;;;15.23;8.30;;;;;;;25.65;57.45;100314.73;1753322;82;21929;-79
2021/07/10 04:47:49;;;;;;;12.53;8.35;;;;;;;25.73;56.67;100312.77;1753050;82;21192;-79
2021/07/10 04:50:55;;;;;;;17.12;7.60;;;;;;;25.79;55.68;100307.23;1752039;82;21794;-79
2021/07/10 04:54:01;;;;;;;12.82;7.50;;;;;;;25.81;55.89;100311.42;1751861;81;21196;-78
2021/07/10 04:57:07;;;;;;;10.03;6.87;;;;;;;25.84;55.59;100310.05;1754357;82;21255;-78
2021/07/10 05:00:14;;;;;;;11.78;7.28;;;;;;;25.95;55.33;100313.12;1753736;82;21746;-78
2021/07/10 05:03:19;;;;;;;16.00;7.55;;;;;;;26.11;55.23;100313.45;1753392;82;21739;-79
2021/07/10 05:06:23;;;;;;;14.00;7.50;;;;;;;26.30;55.20;100317.94;1752166;82;21374;-79
2021/07/10 05:09:29;;;;;;;10.98;6.67;;;;;;;26.38;54.82;100317.91;1752138;82;21192;-78
2021/07/10 05:12:34;;;;;;;11.48;6.70;;;;;;;26.47;53.55;100317.66;1753035;80;21216;-77
2021/07/10 05:15:40;;;;;;;10.43;6.33;;;;;;;26.61;52.42;100320.17;1753286;82;21805;-79
2021/07/10 05:18:47;;;;;;;9.08;6.42;;;;;;;26.78;52.29;100322.69;1752664;82;21872;-78
2021/07/10 05:21:53;;;;;;;10.70;6.78;;;;;;;26.94;52.21;100318.70;1753080;82;21362;-78
2021/07/10 05:24:59;;;;;;;11.60;6.53;;;;;;;27.09;52.30;100317.84;1752003;81;21238;-78
2021/07/10 05:28:06;;;;;;;8.35;5.62;;;;;;;27.27;52.05;100316.38;1753336;82;21837;-79
2021/07/10 05:31:12;;;;;;;9.58;6.78;;;;;;;27.48;49.84;100317.14;1753376;82;21196;-79
2021/07/10 05:34:18;;;;;;;8.90;5.78;;;;;;;27.54;49.37;100306.72;1753354;82;21311;-79
2021/07/10 05:37:24;;;;;;;11.90;5.20;;;;;;;27.57;49.02;100306.98;1751949;82;21673;-79
2021/07/10 05:40:29;;;;;;;10.18;6.50;;;;;;;27.70;48.96;100300.70;1753364;82;21299;-79
2021/07/10 05:43:34;;;;;;;7.87;6.37;;;;;;;27.84;50.40;100301.50;1753314;82;21302;-78
2021/07/10 05:46:40;;;;;;;12.33;5.58;;;;;;;27.93;48.57;100309.02;1753533;82;21335;-79
2021/07/10 05:49:46;;;;;;;9.38;5.75;;;;;;;27.96;48.98;100311.26;1752386;82;21303;-79
2021/07/10 05:52:51;;;;;;;13.95;6.47;;;;;;;27.94;47.73;100303.66;1753300;82;21249;-79
2021/07/10 05:55:49;;;;;;;8.30;5.55;;;;;;;27.92;48.05;100313.53;1753368;82;21868;-79
2021/07/10 05:58:55;;;;;;;9.43;6.33;;;;;;;28.00;48.15;100302.52;1774501;81;21307;-79
2021/07/10 06:02:06;;;;;;;9.15;6.55;;;;;;;28.12;47.71;100302.13;1775493;80;21177;-79
2021/07/10 06:05:08;;;;;;;11.00;6.17;;;;;;;28.22;48.20;100300.64;1769347;81;21831;-79
2021/07/10 06:08:14;;;;;;;11.25;6.80;;;;;;;28.15;47.31;100297.34;1773975;81;21142;-79
2021/07/10 06:11:20;;;;;;;8.15;6.25;;;;;;;28.08;47.97;100294.58;1777947;81;21816;-79
2021/07/10 06:14:25;;;;;;;13.30;6.70;;;;;;;28.18;48.33;100292.55;1808578;79;21337;-79
2021/07/10 06:17:31;;;;;;;18.75;6.30;;;;;;;28.19;47.54;100295.63;1737261;82;21315;-78
2021/07/10 06:20:37;;;;;;;9.20;6.17;;;;;;;28.24;49.13;100291.36;1804062;79;22111;-79
2021/07/10 06:23:45;;;;;;;12.25;6.17;;;;;;;28.37;48.21;100290.42;1781682;80;21335;-79
2021/07/10 06:26:50;;;;;;;11.60;6.58;;;;;;;28.66;48.33;100287.06;1780026;80;21207;-78
2021/07/10 06:29:56;;;;;;;14.80;6.03;;;;;;;28.66;48.33;100287.06;1780948;80;21299;-79
2021/07/10 06:33:01;;;;;;;15.85;7.28;;;;;;;28.86;49.09;100286.00;1781684;80;21311;-78
2021/07/10 06:36:06;;;;;;;13.25;6.53;;;;;;;28.95;45.21;100283.41;1781494;80;21767;-78
2021/07/10 06:39:11;;;;;;;9.55;6.42;;;;;;;29.04;46.14;100281.61;1781562;80;21331;-79
2021/07/10 06:42:18;;;;;;;11.63;6.10;;;;;;;29.07;45.44;100288.02;1782691;80;22103;-78
2021/07/10 06:45:26;;;;;;;12.80;6.40;;;;;;;29.14;47.13;100286.27;1781678;80;21290;-79
2021/07/10 06:48:32;;;;;;;15.43;6.42;;;;;;;29.17;45.64;100288.47;1781814;80;21307;-79
2021/07/10 06:51:37;;;;;;;9.88;6.42;;;;;;;29.24;45.52;100286.14;1781506;80;21231;-79
2021/07/10 06:54:43;;;;;;;12.18;6.33;;;;;;;29.23;43.45;100288.70;1781599;80;21295;-79
2021/07/10 06:57:48;;;;;;;10.82;5.72;;;;;;;29.23;43.45;100288.70;1781583;80;21192;-79
2021/07/10 07:00:53;;;;;;;8.90;5.97;;;;;;;29.21;45.31;100293.20;1780554;80;21323;-79
2021/07/10 07:03:59;;;;;;;10.18;5.95;;;;;;;29.28;44.30;100291.44;1782195;80;21322;-79
2021/07/10 07:07:04;;;;;;;9.58;6.05;;;;;;;29.37;45.62;100292.45;1781181;80;21319;-79
2021/07/10 07:10:12;;;;;;;9.33;5.60;;;;;;;29.44;43.21;100295.72;1781168;80;21834;-79
2021/07/10 07:13:19;;;;;;;11.78;6.37;;;;;;;29.46;43.87;100300.50;1778668;80;21330;-79
2021/07/10 07:16:24;;;;;;;17.32;5.95;;;;;;;29.52;44.43;100292.23;1779392;80;21580;-80
2021/07/10 07:19:30;;;;;;;17.67;5.97;;;;;;;29.57;43.57;100289.95;1779394;80;21719;-79
2021/07/10 07:22:34;;;;;;;6.78;5.30;;;;;;;29.57;43.19;100284.89;1778499;80;21377;-79
2021/07/10 07:25:40;;;;;;;6.72;5.17;;;;;;;29.64;42.25;100288.15;1779402;80;21307;-79
2021/07/10 07:28:45;;;;;;;8.50;5.97;;;;;;;29.64;43.39;100286.20;1780401;80;21152;-79
2021/07/10 07:31:51;;;;;;;9.85;6.30;;;;;;;29.65;42.32;100292.09;1778968;80;21294;-79
2021/07/10 07:34:56;;;;;;;12.28;6.25;;;;;;;29.64;43.27;100286.20;1779462;80;21184;-79
2021/07/10 07:38:02;;;;;;;12.20;5.50;;;;;;;29.65;43.64;100289.28;1778594;80;21268;-79
2021/07/10 07:41:08;;;;;;;12.47;5.60;;;;;;;29.68;42.93;100298.52;1778630;80;21917;-78
2021/07/10 07:44:14;;;;;;;9.85;5.40;;;;;;;29.68;41.72;100284.99;1779365;80;21283;-78
2021/07/10 07:47:21;;;;;;;7.55;4.97;;;;;;;29.70;42.45;100292.02;1779555;80;21362;-79
2021/07/10 07:50:26;;;;;;;9.55;5.00;;;;;;;29.75;40.23;100284.89;1779470;80;21307;-79
2021/07/10 07:53:32;;;;;;;10.18;5.05;;;;;;;29.76;42.17;100285.16;1778488;80;21326;-79
2021/07/10 07:56:38;;;;;;;11.30;5.15;;;;;;;29.79;40.67;100276.10;1779425;80;21180;-79
2021/07/10 07:59:44;;;;;;;13.88;4.97;;;;;;;29.81;41.39;100276.36;1779353;80;21169;-79
2021/07/10 08:02:50;;;;;;;8.83;4.40;;;;;;;29.84;40.21;100267.30;1779466;80;21350;-79
2021/07/10 08:05:58;;;;;;;9.20;4.55;;;;;;;29.86;39.54;100274.29;1778010;80;22415;-79
2021/07/10 08:09:04;;;;;;;6.87;4.05;;;;;;;29.83;40.06;100264.19;1777770;80;21282;-79
2021/07/10 08:12:10;;;;;;;11.65;5.15;;;;;;;29.79;38.61;100269.62;1777897;80;21354;-78
2021/07/10 08:15:19;;;;;;;9.43;4.37;;;;;;;29.86;39.05;100274.29;1771983;80;21331;-79
2021/07/10 08:18:25;;;;;;;6.37;4.15;;;;;;;29.91;39.15;100274.20;1769642;81;21764;-79
2021/07/10 08:21:33;;;;;;;8.05;4.33;;;;;;;29.90;38.92;100272.54;1770568;81;21216;-79
2021/07/10 08:24:38;;;;;;;7.92;5.03;;;;;;;29.91;40.37;100270.55;1769970;81;21326;-79
2021/07/10 08:27:44;;;;;;;20.02;5.03;;;;;;;29.99;38.95;100268.46;1769747;81;21306;-79
2021/07/10 08:30:48;;;;;;;15.75;4.97;;;;;;;30.07;38.82;100274.82;1769709;81;21295;-79
2021/07/10 08:33:55;;;;;;;6.60;4.20;;;;;;;30.12;38.14;100278.96;1771485;81;21232;-79
2021/07/10 08:37:02;;;;;;;7.15;4.17;;;;;;;30.24;38.17;100271.45;1771077;81;21756;-79
2021/07/10 08:40:08;;;;;;;5.95;3.95;;;;;;;30.32;37.34;100269.91;1769635;81;21314;-79
2021/07/10 08:43:13;;;;;;;6.03;4.10;;;;;;;30.46;37.98;100275.02;1769693;81;21295;-78
2021/07/10 08:46:20;;;;;;;19.70;4.15;;;;;;;30.54;36.09;100259.62;1769862;81;21814;-78
2021/07/10 08:49:25;;;;;;;9.40;3.77;;;;;;;30.59;37.22;100256.45;1769745;81;21901;-78
2021/07/10 08:52:31;;;;;;;5.30;3.33;;;;;;;30.65;36.13;100268.73;1770086;81;21873;-78
2021/07/10 08:55:37;;;;;;;8.53;4.50;;;;;;;30.68;36.46;100265.88;1771053;81;21305;-78
2021/07/10 08:58:44;;;;;;;11.28;4.50;;;;;;;30.73;36.96;100251.69;1771113;81;21296;-78
2021/07/10 09:01:53;;;;;;;13.08;4.03;;;;;;;30.76;34.74;100260.34;1772114;81;21287;-78
2021/07/10 09:04:59;;;;;;;6.90;4.05;;;;;;;30.66;34.63;100245.58;1771847;81;21300;-78
2021/07/10 09:08:22;;;;;;;7.33;3.95;;;;;;;30.43;34.56;100241.77;1772054;81;21275;-78
2021/07/10 09:11:28;;;;;;;9.33;3.42;;;;;;;30.32;35.51;100243.12;1769847;81;21272;-78
2021/07/10 09:14:38;;;;;;;6.10;3.75;;;;;;;30.36;35.26;100247.00;1769618;81;21256;-79
2021/07/10 09:17:53;;;;;;;12.45;3.60;;;;;;;30.35;34.93;100239.66;1774971;81;21188;-78
2021/07/10 09:21:00;;;;;;;11.10;3.95;;;;;;;30.35;35.75;100234.88;1775155;80;21727;-78
2021/07/10 09:24:05;;;;;;;7.47;3.77;;;;;;;30.38;35.08;100225.77;1776435;81;21322;-78
2021/07/10 09:27:14;;;;;;;5.05;3.20;;;;;;;30.38;34.84;100230.58;1776616;81;21192;-78
2021/07/10 09:30:21;;;;;;;6.70;3.37;;;;;;;30.37;35.46;100233.15;1776853;81;21830;-78
2021/07/10 09:33:28;;;;;;;8.43;3.75;;;;;;;30.35;34.97;100229.78;1775396;81;21311;-79
2021/07/10 09:36:33;;;;;;;7.40;3.50;;;;;;;30.31;34.96;100234.40;1776631;81;21295;-78
2021/07/10 09:39:44;;;;;;;9.65;4.20;;;;;;;30.29;36.02;100226.22;1776123;81;22589;-78
2021/07/10 09:42:52;;;;;;;7.15;3.95;;;;;;;30.29;35.48;100229.88;1776145;81;21227;-78
2021/07/10 09:45:58;;;;;;;6.97;3.62;;;;;;;30.35;34.83;100231.19;1775071;80;21219;-78
2021/07/10 09:49:04;;;;;;;9.73;3.45;;;;;;;30.37;35.33;100224.68;1776570;81;21362;-78
2021/07/10 09:52:18;;;;;;;5.87;3.40;;;;;;;30.41;35.82;100225.16;1777361;81;21333;-79
2021/07/10 09:55:28;;;;;;;19.23;4.08;;;;;;;30.42;35.23;100228.24;1776988;81;21339;-78
2021/07/10 09:58:41;;;;;;;5.37;3.85;;;;;;;30.43;35.45;100221.44;1776606;81;21298;-78
2021/07/10 10:01:46;;;;;;;8.63;3.77;;;;;;;30.48;33.70;100219.94;1775074;81;21196;-78
2021/07/10 10:04:53;;;;;;;6.30;4.00;;;;;;;30.52;34.84;100227.21;1776586;81;21232;-78
2021/07/10 10:08:04;;;;;;;6.17;3.52;;;;;;;30.56;34.81;100225.44;1775073;81;21248;-78
2021/07/10 10:11:10;;;;;;;8.35;3.90;;;;;;;30.58;34.80;100225.95;1774921;81;21228;-78
2021/07/10 10:14:17;;;;;;;8.05;4.05;;;;;;;30.60;35.80;100224.25;1774975;80;21199;-78
2021/07/10 10:17:25;;;;;;;10.53;3.52;;;;;;;30.58;34.56;100228.77;1775249;80;21863;-78
2021/07/10 10:20:31;;;;;;;6.55;4.00;;;;;;;30.57;33.09;100220.05;1779285;80;21214;-78
2021/07/10 10:23:38;;;;;;;11.10;3.87;;;;;;;30.52;34.52;100215.92;1778399;80;21846;-78
2021/07/10 10:26:43;;;;;;;9.90;3.70;;;;;;;30.53;34.34;100209.13;1777849;80;21331;-78
2021/07/10 10:29:49;;;;;;;7.87;3.92;;;;;;;30.49;33.88;100216.56;1779231;80;21608;-78
2021/07/10 10:32:56;;;;;;;8.68;3.55;;;;;;;30.47;33.14;100211.79;1778512;80;21370;-78
2021/07/10 10:36:02;;;;;;;9.13;3.55;;;;;;;30.52;32.92;100208.87;1779476;80;21359;-78
2021/07/10 10:39:07;;;;;;;8.60;4.03;;;;;;;30.57;34.67;100205.94;1779938;80;21259;-78
2021/07/10 10:42:19;;;;;;;7.20;3.87;;;;;;;30.61;33.88;100216.04;1779141;80;21200;-78
2021/07/10 10:45:22;;;;;;;;;;;;;;;30.57;33.61;100196.06;1782688;80;21260;-78
2021/07/10 10:48:46;;;;;;;10.28;3.72;;;;;;;30.61;33.48;100208.98;1779807;80;20215;-78
2021/07/10 10:51:45;;;;;;;7.42;4.33;;;;;;;30.61;33.34;100208.98;1752115;80;21333;-78
2021/07/10 10:54:43;;;;;;;6.37;3.30;;;;;;;30.60;34.04;100191.22;1778078;80;21240;-78
2021/07/10 10:58:01;;;;;;;7.12;4.00;;;;;;;30.64;35.35;100200.73;1779430;80;21180;-78
2021/07/10 11:01:12;;;;;;;9.80;3.40;;;;;;;30.67;34.05;100193.03;1780022;80;21292;-78
2021/07/10 11:04:18;;;;;;;6.25;3.75;;;;;;;30.67;32.83;100188.80;1778212;80;21216;-78
2021/07/10 11:07:37;;;;;;;11.15;4.12;;;;;;;30.65;33.47;100191.11;1779358;80;21184;-78
2021/07/10 11:10:46;;;;;;;7.53;3.90;;;;;;;30.64;35.62;100192.27;1777987;80;21250;-78
2021/07/10 11:13:58;;;;;;;8.98;3.83;;;;;;;30.70;35.22;100178.88;1777982;80;21302;-78
2021/07/10 11:17:12;;;;;;;12.45;3.85;;;;;;;30.83;35.64;100190.78;1772841;80;21732;-78
2021/07/10 11:20:18;;;;;;;6.45;3.27;;;;;;;30.88;34.81;100196.90;1779344;80;21188;-79
2021/07/10 11:23:42;;;;;;;12.63;3.52;;;;;;;30.72;33.70;100188.72;1779175;80;21377;-78
2021/07/10 11:26:47;;;;;;;5.60;3.62;;;;;;;30.60;34.59;100193.20;1778646;80;21203;-78
2021/07/10 11:29:53;;;;;;;4.20;3.35;;;;;;;30.57;34.66;100180.54;1779319;80;21292;-78
2021/07/10 11:32:58;;;;;;;8.95;3.90;;;;;;;30.61;35.52;100180.18;1779306;80;21188;-78
2021/07/10 11:36:04;;;;;;;5.47;3.37;;;;;;;30.62;34.96;100175.38;1780010;80;21323;-78
2021/07/10 11:39:36;;;;;;;10.35;3.75;;;;;;;30.64;35.55;100180.14;1779350;80;21224;-79
2021/07/10 11:42:47;;;;;;;8.95;3.65;;;;;;;30.64;35.07;100182.39;1778169;80;21323;-78
2021/07/10 11:45:56;;;;;;;11.08;3.47;;;;;;;30.67;35.81;100180.91;1779505;80;21327;-78
2021/07/10 11:49:03;;;;;;;15.85;4.25;;;;;;;30.74;34.95;100190.67;1778547;80;21299;-78
2021/07/10 11:52:14;;;;;;;3.83;2.90;;;;;;;30.75;34.87;100185.28;1777956;80;21318;-78
2021/07/10 11:55:19;;;;;;;5.87;3.30;;;;;;;30.82;34.59;100181.19;1778023;80;21881;-78
2021/07/10 11:58:25;;;;;;;12.28;3.20;;;;;;;30.83;34.76;100181.48;1777747;80;21338;-78
2021/07/10 12:01:31;;;;;;;7.83;3.17;;;;;;;30.82;35.01;100187.70;1780390;80;21271;-78
2021/07/10 12:04:37;;;;;;;8.78;3.20;;;;;;;30.86;34.29;100182.24;1778868;80;21871;-78
2021/07/10 12:07:44;;;;;;;8.10;3.45;;;;;;;30.86;32.84;100171.78;1777936;80;21299;-79
2021/07/10 12:10:51;;;;;;;14.50;3.70;;;;;;;30.77;33.21;100169.44;1779451;80;21910;-79
2021/07/10 12:13:56;;;;;;;6.15;3.27;;;;;;;30.73;34.76;100179.13;1779279;80;21854;-78
2021/07/10 12:17:04;;;;;;;3.90;2.85;;;;;;;30.71;35.04;100167.30;1773815;80;21205;-78
2021/07/10 12:20:12;;;;;;;9.00;3.25;;;;;;;30.73;35.25;100172.07;1776028;80;21196;-78
2021/07/10 12:23:43;;;;;;;11.78;3.70;;;;;;;30.72;34.49;100165.31;1777883;80;21763;-79
2021/07/10 12:26:48;;;;;;;7.87;3.45;;;;;;;30.70;36.25;100161.94;1779321;80;21791;-78
2021/07/10 12:30:02;;;;;;;6.92;3.67;;;;;;;30.62;35.06;100167.73;1779350;80;21195;-78
2021/07/10 12:33:07;;;;;;;9.00;3.30;;;;;;;30.57;35.20;100160.78;1777973;80;21834;-78
2021/07/10 12:36:27;;;;;;;9.88;3.40;;;;;;;30.58;36.42;100155.39;1777821;80;21235;-78
2021/07/10 12:39:32;;;;;;;10.53;3.10;;;;;;;30.65;36.47;100151.59;1779283;80;21290;-77
2021/07/10 12:42:37;;;;;;;13.75;3.75;;;;;;;30.75;34.08;100149.16;1778821;80;21315;-79
2021/07/10 12:45:43;;;;;;;9.45;3.35;;;;;;;30.71;33.93;100146.13;1778239;80;21401;-78
2021/07/10 12:48:49;;;;;;;7.78;2.72;;;;;;;30.56;33.70;100152.06;1779741;80;21303;-78
2021/07/10 12:51:56;;;;;;;10.60;3.25;;;;;;;30.48;34.30;100149.97;1779390;80;21935;-79
2021/07/10 12:55:09;;;;;;;3.67;2.95;;;;;;;30.47;35.03;100142.66;1778897;80;21235;-78
2021/07/10 12:58:14;;;;;;;6.85;3.42;;;;;;;30.50;34.94;100136.39;1780317;80;21300;-79
2021/07/10 13:01:20;;;;;;;7.30;2.92;;;;;;;30.53;35.23;100138.57;1778338;80;21244;-79
2021/07/10 13:04:27;;;;;;;4.47;2.80;;;;;;;30.51;34.25;100138.89;1755988;80;21176;-78
2021/07/10 13:07:39;;;;;;;5.87;2.90;;;;;;;30.48;34.45;100138.67;1779267;80;21315;-79
2021/07/10 13:10:46;;;;;;;7.95;2.72;;;;;;;30.48;35.00;100135.86;1779371;80;21299;-78
2021/07/10 13:13:57;;;;;;;7.25;2.98;;;;;;;30.48;34.59;100142.33;1778394;80;21220;-79
2021/07/10 13:17:07;;;;;;;4.60;2.50;;;;;;;30.46;33.80;100137.59;1777723;80;21204;-79
2021/07/10 13:20:32;;;;;;;8.13;3.17;;;;;;;30.43;34.65;100134.55;1774294;80;21710;-79
2021/07/10 13:23:46;;;;;;;14.07;2.95;;;;;;;30.34;34.64;100137.26;1772108;81;21254;-79
2021/07/10 13:27:01;;;;;;;5.17;3.00;;;;;;;30.18;34.47;100138.14;1771967;81;21205;-79
2021/07/10 13:30:21;;;;;;;5.08;2.50;;;;;;;30.08;34.46;100131.25;1772050;81;21799;-79
2021/07/10 13:33:38;;;;;;;12.55;2.87;;;;;;;30.05;35.99;100134.11;1771067;81;21826;-79
2021/07/10 13:36:46;;;;;;;8.08;2.83;;;;;;;30.22;35.95;100126.50;1769698;81;21292;-78
2021/07/10 13:39:51;;;;;;;6.08;3.02;;;;;;;30.22;35.95;100126.50;1771464;81;21307;-78
2021/07/10 13:43:07;;;;;;;7.03;3.00;;;;;;;30.24;34.86;100123.36;1770971;81;21232;-78
2021/07/10 13:46:17;;;;;;;7.12;3.33;;;;;;;30.23;34.48;100119.70;1770293;81;21386;-78
2021/07/10 13:49:46;;;;;;;9.68;3.10;;;;;;;30.22;35.46;100120.03;1771263;81;21224;-78
2021/07/10 13:52:51;;;;;;;8.05;3.25;;;;;;;30.17;35.62;100123.78;1771259;81;21291;-78
2021/07/10 13:55:56;;;;;;;5.37;2.90;;;;;;;30.14;35.64;100115.93;1770708;81;21185;-78
2021/07/10 13:59:09;;;;;;;7.28;3.00;;;;;;;30.13;36.33;100107.22;1770534;81;21374;-79
2021/07/10 14:02:14;;;;;;;6.47;2.77;;;;;;;30.12;35.66;100104.69;1771038;81;21291;-78
2021/07/10 14:05:24;;;;;;;6.00;2.65;;;;;;;30.12;35.66;100104.69;1771028;81;21811;-78
2021/07/10 14:08:31;;;;;;;8.70;2.90;;;;;;;30.13;35.43;100102.98;1771025;81;21326;-79
2021/07/10 14:11:38;;;;;;;4.55;2.27;;;;;;;30.09;35.04;100093.44;1770639;81;21885;-79
2021/07/10 14:14:44;;;;;;;7.12;3.05;;;;;;;30.09;35.04;100093.44;1770330;81;21259;-79
2021/07/10 14:17:49;;;;;;;17.95;3.40;;;;;;;30.10;35.56;100098.50;1769658;81;21291;-79
2021/07/10 14:20:56;;;;;;;10.13;2.92;;;;;;;30.07;35.60;100085.05;1770937;80;21322;-78
2021/07/10 14:24:02;;;;;;;9.05;2.27;;;;;;;30.05;35.36;100088.16;1771272;81;21371;-78